createdAt,value
2023-03-15T00:02:13.064Z,63.12
2023-03-15T00:04:42.362Z,63.69
2023-03-15T00:07:10.340Z,63.77
2023-03-15T00:09:37.992Z,64.45
2023-03-15T00:12:06.460Z,64.57
2023-03-15T00:14:34.151Z,65.44
2023-03-15T00:17:01.919Z,65.65
2023-03-15T00:19:29.689Z,66.00
2023-03-15T00:21:58.709Z,66.62
2023-03-15T00:24:26.545Z,66.78
2023-03-15T00:26:54.204Z,67.20
2023-03-15T00:29:21.956Z,68.37
2023-03-15T00:31:50.043Z,69.48
2023-03-15T00:34:18.874Z,70.28
2023-03-15T00:36:46.862Z,70.62
2023-03-15T00:39:17.173Z,71.17
2023-03-15T00:41:45.753Z,71.72
2023-03-15T00:44:13.972Z,72.66
2023-03-15T00:46:44.588Z,73.04
2023-03-15T00:49:12.535Z,73.32
2023-03-15T00:51:40.256Z,73.80
2023-03-15T00:54:07.900Z,73.78
2023-03-15T00:56:37.708Z,74.52
2023-03-15T00:59:05.365Z,74.89
2023-03-15T01:01:33.095Z,75.10
2023-03-15T01:04:01.362Z,75.56
2023-03-15T01:06:30.258Z,75.58
2023-03-15T01:08:58.114Z,75.86
2023-03-15T01:11:28.389Z,76.63
2023-03-15T01:13:59.195Z,76.64
2023-03-15T01:16:27.939Z,76.58
2023-03-15T01:18:56.087Z,76.38
2023-03-15T01:21:24.841Z,76.98
2023-03-15T01:23:53.145Z,76.90
2023-03-15T01:26:21.166Z,77.02
2023-03-15T01:28:49.143Z,76.66
2023-03-15T01:31:22.066Z,77.27
2023-03-15T01:33:49.771Z,77.75
2023-03-15T01:36:18.070Z,77.12
2023-03-15T01:38:46.474Z,77.11
2023-03-15T01:41:15.481Z,77.43
2023-03-15T01:43:48.583Z,77.23
2023-03-15T01:46:24.766Z,77.75
2023-03-15T01:48:58.091Z,77.88
2023-03-15T01:51:29.630Z,77.54
2023-03-15T01:54:01.970Z,77.72
2023-03-15T01:56:32.562Z,77.71
2023-03-15T01:59:02.652Z,77.49
2023-03-15T02:01:34.012Z,77.69
2023-03-15T02:04:08.560Z,78.26
2023-03-15T02:06:36.965Z,77.80
2023-03-15T02:09:09.986Z,77.59
2023-03-15T02:11:37.868Z,78.13
2023-03-15T02:14:07.189Z,77.82
2023-03-15T02:16:36.585Z,77.90
2023-03-15T02:19:05.902Z,77.67
2023-03-15T02:21:43.577Z,77.46
2023-03-15T02:24:27.412Z,77.33
2023-03-15T02:26:57.189Z,77.33
2023-03-15T02:29:29.283Z,77.50
2023-03-15T02:31:58.676Z,77.20
2023-03-15T02:34:26.961Z,77.69
2023-03-15T02:36:55.652Z,78.00
2023-03-15T02:42:09.447Z,78.34
2023-03-15T02:44:40.759Z,78.40
2023-03-15T02:47:11.368Z,78.52
2023-03-15T02:49:43.405Z,78.89
2023-03-15T02:52:12.147Z,79.07
2023-03-15T02:54:43.194Z,78.66
2023-03-15T02:57:11.310Z,78.04
2023-03-15T02:59:41.981Z,78.16
2023-03-15T03:02:11.721Z,78.39
2023-03-15T03:04:40.066Z,78.64
2023-03-15T03:07:08.168Z,79.04
2023-03-15T03:09:36.031Z,78.51
2023-03-15T03:12:03.716Z,78.45
2023-03-15T03:14:31.492Z,78.64
2023-03-15T03:17:01.547Z,78.68
2023-03-15T03:19:29.238Z,78.22
2023-03-15T03:21:57.443Z,78.43
2023-03-15T03:24:25.977Z,78.26
2023-03-15T03:26:57.671Z,78.47
2023-03-15T03:29:28.463Z,78.85
2023-03-15T03:31:57.898Z,78.42
2023-03-15T03:34:27.212Z,78.53
2023-03-15T03:36:55.018Z,78.26
2023-03-15T03:39:22.678Z,77.90
2023-03-15T03:41:50.475Z,78.10
2023-03-15T03:44:18.130Z,78.50
2023-03-15T03:46:45.876Z,78.35
2023-03-15T03:49:14.709Z,79.12
2023-03-15T03:51:43.773Z,79.10
2023-03-15T03:54:11.464Z,78.32
2023-03-15T03:56:39.661Z,78.41
2023-03-15T03:59:07.318Z,78.35
2023-03-15T04:01:34.920Z,78.44
2023-03-15T04:04:02.612Z,78.15
2023-03-15T04:06:32.577Z,78.33
2023-03-15T04:09:02.699Z,78.50
2023-03-15T04:11:30.473Z,78.21
2023-03-15T04:13:58.162Z,78.42
2023-03-15T04:16:26.102Z,78.55
2023-03-15T04:18:56.416Z,78.11
2023-03-15T04:21:24.143Z,78.41
2023-03-15T04:23:52.247Z,78.38
2023-03-15T04:26:21.266Z,78.44
2023-03-15T04:28:49.323Z,78.51
2023-03-15T04:31:17.049Z,78.77
2023-03-15T04:33:45.100Z,78.51
2023-03-15T04:36:18.980Z,78.92
2023-03-15T04:38:47.507Z,79.07
2023-03-15T04:41:16.046Z,79.13
2023-03-15T04:43:45.715Z,78.82
2023-03-15T04:46:13.444Z,78.98
2023-03-15T04:48:41.610Z,78.78
2023-03-15T04:51:09.399Z,78.82
2023-03-15T04:53:38.990Z,78.72
2023-03-15T04:56:07.236Z,78.79
2023-03-15T04:58:34.959Z,78.69
2023-03-15T05:01:04.327Z,78.82
2023-03-15T05:03:32.134Z,79.06
2023-03-15T05:05:59.829Z,79.25
2023-03-15T05:08:27.531Z,79.69
2023-03-15T05:10:55.286Z,79.65
2023-03-15T05:13:22.976Z,79.71
2023-03-15T05:15:50.974Z,79.93
2023-03-15T05:18:20.001Z,80.01
2023-03-15T05:20:47.646Z,79.87
2023-03-15T05:23:15.365Z,79.62
2023-03-15T05:25:43.112Z,79.21
2023-03-15T05:28:10.805Z,79.41
2023-03-15T05:30:38.455Z,79.87
2023-03-15T05:33:06.190Z,79.59
2023-03-15T05:35:35.308Z,79.56
2023-03-15T05:38:03.602Z,79.21
2023-03-15T05:40:31.303Z,79.24
2023-03-15T05:42:58.948Z,79.41
2023-03-15T05:45:26.607Z,79.57
2023-03-15T05:47:54.225Z,79.60
2023-03-15T05:50:21.969Z,79.73
2023-03-15T05:52:53.030Z,79.93
2023-03-15T05:55:20.977Z,79.72
2023-03-15T05:57:48.724Z,80.00
2023-03-15T06:00:17.523Z,80.39
2023-03-15T06:02:46.441Z,80.35
2023-03-15T06:05:14.672Z,80.64
2023-03-15T06:07:42.785Z,80.25
2023-03-15T06:10:12.718Z,79.99
2023-03-15T06:12:40.583Z,80.06
2023-03-15T06:15:09.466Z,80.50
2023-03-15T06:17:37.397Z,80.80
2023-03-15T06:20:05.522Z,80.99
2023-03-15T06:22:33.235Z,81.01
2023-03-15T06:25:00.921Z,81.13
2023-03-15T06:27:30.102Z,80.56
2023-03-15T06:29:58.384Z,80.33
2023-03-15T06:32:26.349Z,80.78
2023-03-15T06:34:54.115Z,80.96
2023-03-15T06:37:34.272Z,81.24
2023-03-15T06:40:04.161Z,81.19
2023-03-15T06:42:33.147Z,80.68
2023-03-15T06:45:01.145Z,80.85
2023-03-15T06:47:29.226Z,80.97
2023-03-15T06:49:57.078Z,80.81
2023-03-15T06:52:24.932Z,80.56
2023-03-15T06:54:52.649Z,80.38
2023-03-15T06:57:20.396Z,80.03
2023-03-15T06:59:49.512Z,79.75
2023-03-15T07:02:18.921Z,79.75
2023-03-15T07:04:46.684Z,80.05
2023-03-15T07:07:14.813Z,79.94
2023-03-15T07:09:42.745Z,79.91
2023-03-15T07:12:11.690Z,79.67
2023-03-15T07:14:39.340Z,79.20
2023-03-15T07:17:08.534Z,78.66
2023-03-15T07:19:41.369Z,79.04
2023-03-15T07:22:14.525Z,78.67
2023-03-15T07:24:42.188Z,79.08
2023-03-15T07:27:15.104Z,78.79
2023-03-15T07:29:43.845Z,78.62
2023-03-15T07:32:13.023Z,78.56
2023-03-15T07:34:40.943Z,78.69
2023-03-15T07:37:08.817Z,78.73
2023-03-15T07:39:36.611Z,77.92
2023-03-15T07:42:07.129Z,77.94
2023-03-15T07:44:34.846Z,77.32
2023-03-15T07:47:02.608Z,77.26
2023-03-15T07:49:32.015Z,76.92
2023-03-15T07:51:59.672Z,76.33
2023-03-15T07:54:29.457Z,75.98
2023-03-15T07:56:57.164Z,76.42
2023-03-15T07:59:24.960Z,77.32
2023-03-15T08:01:52.834Z,76.69
2023-03-15T08:04:21.190Z,76.80
2023-03-15T08:06:50.221Z,76.67
2023-03-15T08:09:17.932Z,76.39
2023-03-15T08:11:45.824Z,76.24
2023-03-15T08:14:13.634Z,76.06
2023-03-15T08:16:41.400Z,74.78
2023-03-15T08:19:09.222Z,74.83
2023-03-15T08:21:36.972Z,75.15
2023-03-15T08:24:06.643Z,75.06
2023-03-15T08:26:34.358Z,75.18
2023-03-15T08:29:02.572Z,73.84
2023-03-15T08:31:31.021Z,73.00
2023-03-15T08:33:58.730Z,73.80
2023-03-15T08:36:26.603Z,73.46
2023-03-15T08:38:54.314Z,73.79
2023-03-15T08:41:23.328Z,73.05
2023-03-15T08:43:51.015Z,73.40
2023-03-15T08:46:19.821Z,73.15
2023-03-15T08:48:47.629Z,73.62
2023-03-15T08:51:15.280Z,72.85
2023-03-15T08:53:43.130Z,72.36
2023-03-15T08:56:10.773Z,72.94
2023-03-15T08:58:39.839Z,71.91
2023-03-15T09:01:07.519Z,71.11
2023-03-15T09:03:35.233Z,70.94
2023-03-15T09:06:02.905Z,71.18
2023-03-15T09:08:33.227Z,71.83
2023-03-15T09:11:01.539Z,70.53
2023-03-15T09:13:30.432Z,70.54
2023-03-15T09:15:59.521Z,70.51
2023-03-15T09:18:27.229Z,68.66
2023-03-15T09:20:56.748Z,68.34
2023-03-15T09:23:25.098Z,68.14
2023-03-15T09:25:52.819Z,68.40
2023-03-15T09:28:20.595Z,68.18
2023-03-15T09:30:48.377Z,69.07
2023-03-15T09:33:17.514Z,68.90
2023-03-15T09:35:45.354Z,67.71
2023-03-15T09:38:13.137Z,67.52
2023-03-15T09:40:45.046Z,66.85
2023-03-15T09:43:45.255Z,66.84
2023-03-15T09:46:28.101Z,67.16
2023-03-15T09:49:02.399Z,67.62
2023-03-15T09:51:36.602Z,68.20
2023-03-15T09:54:09.270Z,68.55
2023-03-15T09:56:40.834Z,67.79
2023-03-15T09:59:11.536Z,68.33
2023-03-15T10:01:41.541Z,67.94
2023-03-15T10:04:18.788Z,67.99
2023-03-15T10:06:51.139Z,68.49
2023-03-15T10:09:27.918Z,68.22
2023-03-15T10:12:04.853Z,66.68
2023-03-15T10:14:52.857Z,65.60
2023-03-15T10:17:30.690Z,66.04
2023-03-15T10:20:05.964Z,65.13
2023-03-15T10:22:41.820Z,65.68
2023-03-15T10:25:17.026Z,64.90
2023-03-15T10:27:49.242Z,64.19
2023-03-15T10:30:20.121Z,62.96
2023-03-15T10:32:53.032Z,63.57
2023-03-15T10:35:22.532Z,63.40
2023-03-15T10:37:50.248Z,64.11
2023-03-15T10:40:41.812Z,61.27
2023-03-15T10:43:20.432Z,61.90
2023-03-15T10:45:58.397Z,61.13
2023-03-15T10:48:26.179Z,61.42
2023-03-15T10:50:55.807Z,60.58
2023-03-15T10:53:25.553Z,61.11
2023-03-15T10:56:01.621Z,60.68
2023-03-15T10:58:39.790Z,61.60
2023-03-15T11:01:09.812Z,58.47
2023-03-15T11:03:38.738Z,57.45
2023-03-15T11:06:21.902Z,55.84
2023-03-15T11:08:49.608Z,55.59
2023-03-15T11:11:17.282Z,54.33
2023-03-15T11:13:59.455Z,54.72
2023-03-15T11:16:27.223Z,55.62
2023-03-15T11:18:59.026Z,55.56
2023-03-15T11:21:33.446Z,55.16
2023-03-15T11:24:03.293Z,55.05
2023-03-15T11:26:35.728Z,55.21
2023-03-15T11:29:05.537Z,53.94
2023-03-15T11:31:34.942Z,54.99
2023-03-15T11:34:09.868Z,54.39
2023-03-15T11:36:45.360Z,52.81
2023-03-15T11:39:17.020Z,53.71
2023-03-15T11:41:51.325Z,52.66
2023-03-15T11:44:29.078Z,51.33
2023-03-15T11:47:02.257Z,50.97
2023-03-15T11:49:36.406Z,49.78
2023-03-15T11:52:06.500Z,50.42
2023-03-15T11:54:34.397Z,48.95
2023-03-15T11:57:05.577Z,49.86
2023-03-15T11:59:35.232Z,49.33
2023-03-15T12:02:22.677Z,49.34
2023-03-15T12:04:51.435Z,50.31
2023-03-15T12:07:47.777Z,49.77
2023-03-15T12:10:35.822Z,48.77
2023-03-15T12:13:20.130Z,47.49
2023-03-15T12:15:51.205Z,47.34
2023-03-15T12:18:33.902Z,47.21
2023-03-15T12:21:13.043Z,48.61
2023-03-15T12:23:47.337Z,49.07
2023-03-15T12:26:27.385Z,47.56
2023-03-15T12:29:08.828Z,46.50
2023-03-15T12:31:52.983Z,45.22
2023-03-15T12:34:27.483Z,46.51
2023-03-15T12:36:59.129Z,46.46
2023-03-15T12:39:41.015Z,46.99
2023-03-15T12:42:15.275Z,46.78
2023-03-15T12:44:44.292Z,45.01
2023-03-15T12:47:13.068Z,46.35
2023-03-15T12:49:43.587Z,46.47
2023-03-15T12:52:35.602Z,45.10
2023-03-15T12:55:15.785Z,45.65
2023-03-15T12:57:50.065Z,44.10
2023-03-15T13:00:20.605Z,44.03
2023-03-15T13:02:51.797Z,44.27
2023-03-15T13:05:26.604Z,44.52
2023-03-15T13:08:08.850Z,45.29
2023-03-15T13:10:54.254Z,44.59
2023-03-15T13:13:33.923Z,44.48
2023-03-15T13:16:18.630Z,44.22
2023-03-15T13:18:55.907Z,43.58
2023-03-15T13:21:29.480Z,42.94
2023-03-15T13:23:59.233Z,43.60
2023-03-15T13:26:47.724Z,42.32
2023-03-15T13:29:19.420Z,42.33
2023-03-15T13:31:47.861Z,42.36
2023-03-15T13:34:19.692Z,43.66
2023-03-15T13:36:50.138Z,43.09
2023-03-15T13:39:23.182Z,41.12
2023-03-15T13:41:58.778Z,42.45
2023-03-15T13:44:27.890Z,41.80
2023-03-15T13:46:56.358Z,40.20
2023-03-15T13:49:25.037Z,40.02
2023-03-15T13:51:54.380Z,41.04
2023-03-15T13:54:27.614Z,40.50
2023-03-15T13:57:05.053Z,40.26
2023-03-15T13:59:40.906Z,41.60
2023-03-15T14:02:14.222Z,42.10
2023-03-15T14:04:41.939Z,41.59
2023-03-15T14:07:23.827Z,41.01
2023-03-15T14:10:24.010Z,40.81
2023-03-15T14:12:53.888Z,39.86
2023-03-15T14:15:26.186Z,38.90
2023-03-15T14:18:02.193Z,37.65
2023-03-15T14:20:33.566Z,37.65
2023-03-15T14:23:02.864Z,39.36
2023-03-15T14:25:34.892Z,39.26
2023-03-15T14:28:04.978Z,40.28
2023-03-15T14:30:36.969Z,39.98
2023-03-15T14:33:07.581Z,40.17
2023-03-15T14:35:43.673Z,40.07
2023-03-15T14:38:18.899Z,39.91
2023-03-15T14:40:47.099Z,40.07
2023-03-15T14:43:16.708Z,39.18
2023-03-15T14:45:47.429Z,39.54
2023-03-15T14:48:19.887Z,39.29
2023-03-15T14:50:48.654Z,39.10
2023-03-15T14:53:20.732Z,38.82
2023-03-15T14:55:48.546Z,38.97
2023-03-15T14:58:19.282Z,38.93
2023-03-15T15:00:49.348Z,39.47
2023-03-15T15:03:23.137Z,39.31
2023-03-15T15:05:51.313Z,40.09
2023-03-15T15:08:22.138Z,40.68
2023-03-15T15:10:51.726Z,39.17
2023-03-15T15:13:22.689Z,38.74
2023-03-15T15:15:55.957Z,38.58
2023-03-15T15:18:38.672Z,38.35
2023-03-15T15:21:14.043Z,38.86
2023-03-15T15:23:57.367Z,38.89
2023-03-15T15:26:28.693Z,38.40
2023-03-15T15:28:58.480Z,38.79
2023-03-15T15:31:27.608Z,38.89
2023-03-15T15:33:57.174Z,40.31
2023-03-15T15:36:27.565Z,39.44
2023-03-15T15:38:55.518Z,39.02
2023-03-15T15:41:25.424Z,39.00
2023-03-15T15:43:53.387Z,39.88
2023-03-15T15:46:23.920Z,39.63
2023-03-15T15:48:52.302Z,39.66
2023-03-15T15:51:26.031Z,39.97
2023-03-15T15:53:55.552Z,39.95
2023-03-15T15:56:28.060Z,40.19
2023-03-15T15:58:56.352Z,38.73
2023-03-15T16:01:26.310Z,39.52
2023-03-15T16:03:54.064Z,38.90
2023-03-15T16:06:23.490Z,39.60
2023-03-15T16:08:53.618Z,40.06
2023-03-15T16:11:22.293Z,39.90
2023-03-15T16:13:53.739Z,39.71
2023-03-15T16:16:22.353Z,39.86
2023-03-15T16:18:51.591Z,39.75
2023-03-15T16:21:28.552Z,39.65
2023-03-15T16:24:00.418Z,39.81
2023-03-15T16:26:29.812Z,39.23
2023-03-15T16:28:57.611Z,39.74
2023-03-15T16:31:27.837Z,38.95
2023-03-15T16:33:59.952Z,39.43
2023-03-15T16:36:28.481Z,38.92
2023-03-15T16:38:56.695Z,39.95
2023-03-15T16:41:24.368Z,40.02
2023-03-15T16:43:51.996Z,39.34
2023-03-15T16:46:23.683Z,39.87
2023-03-15T16:48:51.624Z,39.61
2023-03-15T16:51:20.820Z,39.84
2023-03-15T16:53:48.599Z,39.41
2023-03-15T16:56:16.491Z,39.97
2023-03-15T16:58:45.579Z,40.78
2023-03-15T17:01:13.314Z,40.26
2023-03-15T17:03:43.541Z,40.37
2023-03-15T17:06:20.154Z,40.11
2023-03-15T17:08:49.698Z,41.31
2023-03-15T17:11:23.354Z,40.77
2023-03-15T17:13:54.058Z,41.54
2023-03-15T17:16:21.939Z,41.60
2023-03-15T17:18:49.753Z,40.41
2023-03-15T17:21:29.090Z,40.99
2023-03-15T17:23:58.411Z,41.67
2023-03-15T17:26:26.063Z,41.15
2023-03-15T17:28:57.619Z,41.77
2023-03-15T17:31:25.936Z,42.03
2023-03-15T17:33:53.737Z,41.88
2023-03-15T17:36:23.536Z,42.15
2023-03-15T17:38:51.756Z,42.59
2023-03-15T17:41:22.713Z,42.28
2023-03-15T17:43:54.199Z,42.09
2023-03-15T17:46:28.134Z,42.46
2023-03-15T17:48:56.228Z,42.54
2023-03-15T17:51:26.745Z,42.99
2023-03-15T17:53:55.438Z,43.26
2023-03-15T17:56:24.541Z,43.31
2023-03-15T17:58:52.656Z,43.42
2023-03-15T18:01:23.538Z,44.09
2023-03-15T18:03:51.987Z,43.82
2023-03-15T18:06:21.084Z,44.33
2023-03-15T18:08:49.375Z,43.96
2023-03-15T18:11:20.666Z,44.13
2023-03-15T18:13:49.964Z,44.38
2023-03-15T18:16:18.082Z,44.59
2023-03-15T18:18:45.865Z,44.87
2023-03-15T18:21:15.480Z,44.39
2023-03-15T18:23:43.517Z,45.01
2023-03-15T18:26:12.444Z,45.14
2023-03-15T18:28:40.550Z,45.50
2023-03-15T18:31:14.305Z,45.40
2023-03-15T18:33:42.500Z,45.47
2023-03-15T18:36:11.516Z,46.36
2023-03-15T18:38:40.250Z,45.97
2023-03-15T18:41:14.181Z,46.08
2023-03-15T18:43:41.905Z,46.20
2023-03-15T18:46:10.102Z,46.41
2023-03-15T18:48:41.024Z,46.26
2023-03-15T18:51:12.132Z,46.33
2023-03-15T18:53:41.229Z,46.35
2023-03-15T18:56:17.464Z,46.52
2023-03-15T18:58:45.256Z,46.73
2023-03-15T19:01:18.785Z,46.84
2023-03-15T19:03:50.530Z,47.62
2023-03-15T19:06:18.485Z,47.65
2023-03-15T19:08:46.579Z,47.52
2023-03-15T19:11:14.415Z,47.63
2023-03-15T19:13:43.433Z,47.98
2023-03-15T19:16:11.065Z,47.81
2023-03-15T19:18:42.586Z,48.18
2023-03-15T19:21:11.693Z,48.09
2023-03-15T19:23:39.466Z,48.28
2023-03-15T19:26:07.477Z,48.65
2023-03-15T19:28:35.234Z,48.62
2023-03-15T19:31:03.223Z,49.36
2023-03-15T19:33:31.006Z,49.19
2023-03-15T19:35:58.764Z,49.64
2023-03-15T19:38:28.114Z,49.75
2023-03-15T19:40:58.549Z,49.83
2023-03-15T19:43:27.215Z,49.94
2023-03-15T19:45:54.939Z,50.11
2023-03-15T19:48:22.637Z,50.50
2023-03-15T19:50:50.946Z,50.72
2023-03-15T19:53:19.129Z,50.61
2023-03-15T19:55:48.294Z,50.71
2023-03-15T19:58:15.998Z,50.87
2023-03-15T20:00:43.747Z,50.81
2023-03-15T20:03:12.541Z,50.26
2023-03-15T20:05:40.313Z,50.45
2023-03-15T20:08:09.623Z,50.63
2023-03-15T20:10:37.570Z,50.72
2023-03-15T20:13:06.731Z,50.47
2023-03-15T20:15:34.546Z,50.77
2023-03-15T20:18:02.509Z,50.75
2023-03-15T20:20:32.865Z,50.92
2023-03-15T20:23:00.635Z,50.91
2023-03-15T20:25:30.918Z,50.58
2023-03-15T20:27:58.807Z,50.71
2023-03-15T20:30:27.956Z,50.86
2023-03-15T20:32:55.875Z,50.73
2023-03-15T20:35:28.185Z,50.94
2023-03-15T20:37:56.277Z,50.88
2023-03-15T20:40:24.475Z,51.21
2023-03-15T20:42:53.202Z,51.14
2023-03-15T20:45:29.488Z,51.66
2023-03-15T20:47:58.531Z,51.54
2023-03-15T20:50:26.471Z,51.45
2023-03-15T20:52:54.127Z,51.57
2023-03-15T20:55:21.835Z,51.52
2023-03-15T20:57:49.519Z,51.70
2023-03-15T21:00:19.884Z,51.59
2023-03-15T21:02:48.734Z,51.77
2023-03-15T21:05:18.544Z,51.93
2023-03-15T21:07:46.664Z,52.07
2023-03-15T21:10:14.773Z,52.32
2023-03-15T21:12:43.915Z,52.11
2023-03-15T21:15:15.395Z,52.07
2023-03-15T21:17:43.105Z,52.53
2023-03-15T21:20:14.304Z,52.82
2023-03-15T21:22:44.493Z,53.18
2023-03-15T21:25:13.266Z,53.21
2023-03-15T21:27:41.140Z,53.37
2023-03-15T21:30:10.813Z,53.54
2023-03-15T21:32:38.586Z,53.59
2023-03-15T21:35:07.563Z,53.79
2023-03-15T21:37:35.409Z,54.35
2023-03-15T21:40:06.429Z,54.63
2023-03-15T21:42:34.651Z,54.49
2023-03-15T21:45:02.527Z,54.81
2023-03-15T21:47:30.153Z,54.81
2023-03-15T21:49:57.872Z,54.91
2023-03-15T21:52:27.978Z,55.15
2023-03-15T21:54:56.044Z,55.05
2023-03-15T21:57:25.155Z,55.25
2023-03-15T21:59:52.816Z,55.30
2023-03-15T22:02:20.590Z,55.56
2023-03-15T22:04:48.686Z,55.43
2023-03-15T22:07:16.410Z,55.52
2023-03-15T22:09:44.298Z,55.81
2023-03-15T22:12:14.164Z,55.88
2023-03-15T22:15:04.766Z,55.89
2023-03-15T22:17:33.559Z,55.95
2023-03-15T22:20:01.979Z,55.84
2023-03-15T22:22:29.639Z,56.12
2023-03-15T22:24:57.290Z,56.01
2023-03-15T22:27:25.065Z,56.24
2023-03-15T22:29:54.095Z,56.02
2023-03-15T22:32:21.768Z,56.42
2023-03-15T22:34:49.426Z,56.58
2023-03-15T22:37:17.082Z,56.95
2023-03-15T22:39:44.851Z,56.93
2023-03-15T22:42:12.555Z,57.10
2023-03-15T22:44:40.268Z,57.45
2023-03-15T22:47:09.584Z,57.62
2023-03-15T22:49:37.455Z,57.62
2023-03-15T22:52:05.261Z,57.57
2023-03-15T22:54:32.965Z,57.73
2023-03-15T22:57:01.321Z,57.47
2023-03-15T22:59:29.180Z,57.49
2023-03-15T23:01:57.026Z,57.77
2023-03-15T23:04:26.203Z,57.46
2023-03-15T23:06:53.957Z,57.77
2023-03-15T23:09:22.482Z,57.83
2023-03-15T23:11:50.883Z,58.17
2023-03-15T23:14:18.536Z,58.22
2023-03-15T23:16:46.222Z,58.26
2023-03-15T23:19:14.564Z,57.81
2023-03-15T23:21:43.732Z,58.19
2023-03-15T23:24:15.862Z,57.97
2023-03-15T23:26:43.886Z,58.00
2023-03-15T23:29:11.689Z,58.01
2023-03-15T23:31:40.310Z,58.26
2023-03-15T23:34:12.669Z,57.95
2023-03-15T23:36:40.403Z,58.32
2023-03-15T23:39:09.508Z,58.00
2023-03-15T23:41:37.471Z,58.23
2023-03-15T23:44:05.181Z,58.07
2023-03-15T23:46:36.128Z,58.25
2023-03-15T23:49:04.297Z,57.84
2023-03-15T23:51:33.070Z,58.15
2023-03-15T23:54:00.866Z,57.98
2023-03-15T23:56:30.471Z,57.90
2023-03-15T23:58:58.650Z,58.09
